sensor_id;sensor_type;location;lat;lon;timestamp;P1;durP1;ratioP1;P2;durP2;ratioP2
25091;SDS011;13082;52.374;4.946;2022-11-28T00:01:07;16.60;;;9.60;;
25091;SDS011;13082;52.374;4.946;2022-11-28T00:03:34;15.00;;;9.00;;
25091;SDS011;13082;52.374;4.946;2022-11-28T00:06:06;16.30;;;9.03;;
25091;SDS011;13082;52.374;4.946;2022-11-28T00:08:33;15.13;;;9.00;;
25091;SDS011;13082;52.374;4.946;2022-11-28T00:11:06;11.60;;;8.10;;
25091;SDS011;13082;52.374;4.946;2022-11-28T00:13:33;14.53;;;8.53;;
25091;SDS011;13082;52.374;4.946;2022-11-28T00:16:00;15.30;;;8.93;;
25091;SDS011;13082;52.374;4.946;2022-11-28T00:18:28;17.30;;;9.40;;
25091;SDS011;13082;52.374;4.946;2022-11-28T00:21:04;14.30;;;9.03;;
25091;SDS011;13082;52.374;4.946;2022-11-28T00:23:32;14.97;;;9.17;;
25091;SDS011;13082;52.374;4.946;2022-11-28T00:25:58;16.13;;;9.17;;
25091;SDS011;13082;52.374;4.946;2022-11-28T00:28:25;16.27;;;8.50;;
25091;SDS011;13082;52.374;4.946;2022-11-28T00:30:51;17.00;;;10.40;;
25091;SDS011;13082;52.374;4.946;2022-11-28T00:33:17;15.53;;;9.00;;
25091;SDS011;13082;52.374;4.946;2022-11-28T00:35:42;13.47;;;8.87;;
25091;SDS011;13082;52.374;4.946;2022-11-28T00:38:08;13.93;;;8.80;;
25091;SDS011;13082;52.374;4.946;2022-11-28T00:40:34;16.03;;;8.87;;
25091;SDS011;13082;52.374;4.946;2022-11-28T00:42:59;12.10;;;8.53;;
25091;SDS011;13082;52.374;4.946;2022-11-28T00:45:25;14.60;;;9.70;;
25091;SDS011;13082;52.374;4.946;2022-11-28T00:47:50;15.47;;;9.17;;
25091;SDS011;13082;52.374;4.946;2022-11-28T00:50:16;14.33;;;9.97;;
25091;SDS011;13082;52.374;4.946;2022-11-28T00:52:41;12.60;;;8.97;;
25091;SDS011;13082;52.374;4.946;2022-11-28T00:55:07;17.87;;;9.70;;
25091;SDS011;13082;52.374;4.946;2022-11-28T00:57:33;13.10;;;8.20;;
25091;SDS011;13082;52.374;4.946;2022-11-28T00:59:58;11.67;;;9.20;;
25091;SDS011;13082;52.374;4.946;2022-11-28T01:02:24;13.70;;;8.97;;
25091;SDS011;13082;52.374;4.946;2022-11-28T01:04:49;12.93;;;9.00;;
25091;SDS011;13082;52.374;4.946;2022-11-28T01:07:15;14.97;;;9.53;;
25091;SDS011;13082;52.374;4.946;2022-11-28T01:09:41;11.57;;;7.87;;
25091;SDS011;13082;52.374;4.946;2022-11-28T01:12:06;12.60;;;8.90;;
25091;SDS011;13082;52.374;4.946;2022-11-28T01:14:32;13.77;;;8.80;;
25091;SDS011;13082;52.374;4.946;2022-11-28T01:16:58;13.93;;;8.30;;
25091;SDS011;13082;52.374;4.946;2022-11-28T01:19:23;13.77;;;8.63;;
25091;SDS011;13082;52.374;4.946;2022-11-28T01:21:49;15.63;;;9.07;;
25091;SDS011;13082;52.374;4.946;2022-11-28T01:24:15;10.83;;;8.40;;
25091;SDS011;13082;52.374;4.946;2022-11-28T01:26:41;12.13;;;8.27;;
25091;SDS011;13082;52.374;4.946;2022-11-28T01:29:07;11.73;;;8.50;;
25091;SDS011;13082;52.374;4.946;2022-11-28T01:31:34;13.07;;;8.07;;
25091;SDS011;13082;52.374;4.946;2022-11-28T01:34:00;12.00;;;8.53;;
25091;SDS011;13082;52.374;4.946;2022-11-28T01:36:25;14.27;;;9.27;;
25091;SDS011;13082;52.374;4.946;2022-11-28T01:38:51;13.93;;;9.10;;
25091;SDS011;13082;52.374;4.946;2022-11-28T01:41:19;13.77;;;9.13;;
25091;SDS011;13082;52.374;4.946;2022-11-28T01:43:57;11.73;;;8.37;;
25091;SDS011;13082;52.374;4.946;2022-11-28T01:46:25;11.20;;;8.60;;
25091;SDS011;13082;52.374;4.946;2022-11-28T01:48:51;13.30;;;9.60;;
25091;SDS011;13082;52.374;4.946;2022-11-28T01:51:19;15.20;;;10.00;;
25091;SDS011;13082;52.374;4.946;2022-11-28T01:53:45;15.73;;;9.00;;
25091;SDS011;13082;52.374;4.946;2022-11-28T01:56:12;12.97;;;9.17;;
25091;SDS011;13082;52.374;4.946;2022-11-28T01:58:44;16.77;;;9.83;;
25091;SDS011;13082;52.374;4.946;2022-11-28T02:01:13;14.70;;;9.47;;
25091;SDS011;13082;52.374;4.946;2022-11-28T02:03:44;12.73;;;9.53;;
25091;SDS011;13082;52.374;4.946;2022-11-28T02:06:12;13.60;;;9.47;;
25091;SDS011;13082;52.374;4.946;2022-11-28T02:08:40;13.10;;;9.23;;
25091;SDS011;13082;52.374;4.946;2022-11-28T02:14:29;16.73;;;10.57;;
25091;SDS011;13082;52.374;4.946;2022-11-28T02:22:36;16.03;;;10.67;;
25091;SDS011;13082;52.374;4.946;2022-11-28T02:25:25;13.73;;;9.00;;
25091;SDS011;13082;52.374;4.946;2022-11-28T02:31:04;15.73;;;10.17;;
25091;SDS011;13082;52.374;4.946;2022-11-28T02:33:35;14.73;;;10.07;;
25091;SDS011;13082;52.374;4.946;2022-11-28T02:36:18;17.90;;;10.40;;
25091;SDS011;13082;52.374;4.946;2022-11-28T02:39:03;18.17;;;10.00;;
25091;SDS011;13082;52.374;4.946;2022-11-28T02:41:57;15.93;;;9.40;;
25091;SDS011;13082;52.374;4.946;2022-11-28T02:44:33;14.57;;;9.90;;
25091;SDS011;13082;52.374;4.946;2022-11-28T02:47:21;16.20;;;11.27;;
25091;SDS011;13082;52.374;4.946;2022-11-28T02:52:48;14.60;;;9.53;;
25091;SDS011;13082;52.374;4.946;2022-11-28T02:55:20;17.10;;;10.50;;
25091;SDS011;13082;52.374;4.946;2022-11-28T02:57:48;17.83;;;11.20;;
25091;SDS011;13082;52.374;4.946;2022-11-28T03:00:28;17.73;;;11.47;;
25091;SDS011;13082;52.374;4.946;2022-11-28T03:02:59;17.67;;;11.17;;
25091;SDS011;13082;52.374;4.946;2022-11-28T03:05:35;15.67;;;9.97;;
25091;SDS011;13082;52.374;4.946;2022-11-28T03:08:38;14.70;;;9.47;;
25091;SDS011;13082;52.374;4.946;2022-11-28T03:13:56;14.27;;;9.33;;
25091;SDS011;13082;52.374;4.946;2022-11-28T03:19:14;18.57;;;10.40;;
25091;SDS011;13082;52.374;4.946;2022-11-28T03:29:57;16.43;;;9.80;;
25091;SDS011;13082;52.374;4.946;2022-11-28T03:32:34;18.23;;;10.73;;
25091;SDS011;13082;52.374;4.946;2022-11-28T03:35:04;16.53;;;11.00;;
25091;SDS011;13082;52.374;4.946;2022-11-28T03:37:35;18.23;;;12.03;;
25091;SDS011;13082;52.374;4.946;2022-11-28T03:40:06;19.83;;;11.80;;
25091;SDS011;13082;52.374;4.946;2022-11-28T03:42:37;19.43;;;12.37;;
25091;SDS011;13082;52.374;4.946;2022-11-28T03:45:13;18.93;;;11.60;;
25091;SDS011;13082;52.374;4.946;2022-11-28T03:47:43;17.20;;;11.53;;
25091;SDS011;13082;52.374;4.946;2022-11-28T03:50:22;17.13;;;10.40;;
25091;SDS011;13082;52.374;4.946;2022-11-28T03:52:58;21.13;;;12.40;;
25091;SDS011;13082;52.374;4.946;2022-11-28T03:58:02;20.83;;;12.37;;
25091;SDS011;13082;52.374;4.946;2022-11-28T04:00:41;19.33;;;12.57;;
25091;SDS011;13082;52.374;4.946;2022-11-28T04:06:00;19.13;;;11.47;;
25091;SDS011;13082;52.374;4.946;2022-11-28T04:08:31;20.23;;;11.57;;
25091;SDS011;13082;52.374;4.946;2022-11-28T04:11:06;19.07;;;11.97;;
25091;SDS011;13082;52.374;4.946;2022-11-28T04:13:42;22.10;;;12.43;;
25091;SDS011;13082;52.374;4.946;2022-11-28T04:16:32;20.23;;;12.07;;
25091;SDS011;13082;52.374;4.946;2022-11-28T04:24:19;23.33;;;11.87;;
25091;SDS011;13082;52.374;4.946;2022-11-28T04:26:50;23.77;;;13.17;;
25091;SDS011;13082;52.374;4.946;2022-11-28T04:29:33;21.87;;;12.73;;
25091;SDS011;13082;52.374;4.946;2022-11-28T04:32:01;22.80;;;13.17;;
25091;SDS011;13082;52.374;4.946;2022-11-28T04:34:28;26.13;;;13.80;;
25091;SDS011;13082;52.374;4.946;2022-11-28T04:36:56;27.33;;;14.10;;
25091;SDS011;13082;52.374;4.946;2022-11-28T04:39:25;25.43;;;14.57;;
25091;SDS011;13082;52.374;4.946;2022-11-28T04:41:54;26.53;;;14.97;;
25091;SDS011;13082;52.374;4.946;2022-11-28T04:44:46;25.63;;;14.83;;
25091;SDS011;13082;52.374;4.946;2022-11-28T04:47:13;28.03;;;15.37;;
25091;SDS011;13082;52.374;4.946;2022-11-28T04:49:40;27.03;;;14.60;;
25091;SDS011;13082;52.374;4.946;2022-11-28T04:52:13;26.77;;;14.37;;
25091;SDS011;13082;52.374;4.946;2022-11-28T05:00:04;27.23;;;14.47;;
25091;SDS011;13082;52.374;4.946;2022-11-28T05:02:32;29.00;;;16.20;;
25091;SDS011;13082;52.374;4.946;2022-11-28T05:04:59;28.40;;;14.50;;
25091;SDS011;13082;52.374;4.946;2022-11-28T05:07:25;31.77;;;16.43;;
25091;SDS011;13082;52.374;4.946;2022-11-28T05:09:50;34.30;;;15.93;;
25091;SDS011;13082;52.374;4.946;2022-11-28T05:12:16;36.53;;;17.77;;
25091;SDS011;13082;52.374;4.946;2022-11-28T05:14:42;31.80;;;15.80;;
25091;SDS011;13082;52.374;4.946;2022-11-28T05:17:08;37.27;;;17.17;;
25091;SDS011;13082;52.374;4.946;2022-11-28T05:19:37;33.73;;;17.47;;
25091;SDS011;13082;52.374;4.946;2022-11-28T05:22:02;32.77;;;17.27;;
25091;SDS011;13082;52.374;4.946;2022-11-28T05:24:28;38.13;;;18.73;;
25091;SDS011;13082;52.374;4.946;2022-11-28T05:26:53;36.33;;;17.40;;
25091;SDS011;13082;52.374;4.946;2022-11-28T05:29:19;31.60;;;16.00;;
25091;SDS011;13082;52.374;4.946;2022-11-28T05:31:45;34.60;;;17.20;;
25091;SDS011;13082;52.374;4.946;2022-11-28T05:34:10;36.57;;;16.87;;
25091;SDS011;13082;52.374;4.946;2022-11-28T05:36:36;31.03;;;16.03;;
25091;SDS011;13082;52.374;4.946;2022-11-28T05:39:01;38.03;;;17.57;;
25091;SDS011;13082;52.374;4.946;2022-11-28T05:41:28;36.67;;;16.83;;
25091;SDS011;13082;52.374;4.946;2022-11-28T05:43:55;35.23;;;16.50;;
25091;SDS011;13082;52.374;4.946;2022-11-28T05:46:21;39.03;;;17.63;;
25091;SDS011;13082;52.374;4.946;2022-11-28T05:48:48;29.77;;;16.87;;
25091;SDS011;13082;52.374;4.946;2022-11-28T05:51:14;29.73;;;17.97;;
25091;SDS011;13082;52.374;4.946;2022-11-28T05:53:40;29.73;;;17.10;;
25091;SDS011;13082;52.374;4.946;2022-11-28T05:56:07;31.50;;;15.77;;
25091;SDS011;13082;52.374;4.946;2022-11-28T05:58:37;28.60;;;15.33;;
25091;SDS011;13082;52.374;4.946;2022-11-28T06:03:39;26.77;;;15.33;;
25091;SDS011;13082;52.374;4.946;2022-11-28T06:06:08;28.47;;;15.97;;
25091;SDS011;13082;52.374;4.946;2022-11-28T06:08:46;21.83;;;12.60;;
25091;SDS011;13082;52.374;4.946;2022-11-28T06:11:12;25.13;;;13.40;;
25091;SDS011;13082;52.374;4.946;2022-11-28T06:13:39;24.57;;;12.83;;
25091;SDS011;13082;52.374;4.946;2022-11-28T06:16:06;24.30;;;14.07;;
25091;SDS011;13082;52.374;4.946;2022-11-28T06:18:33;22.30;;;12.87;;
25091;SDS011;13082;52.374;4.946;2022-11-28T06:21:02;24.90;;;13.33;;
25091;SDS011;13082;52.374;4.946;2022-11-28T06:23:29;23.83;;;13.03;;
25091;SDS011;13082;52.374;4.946;2022-11-28T06:25:55;23.33;;;13.40;;
25091;SDS011;13082;52.374;4.946;2022-11-28T06:28:21;23.07;;;13.03;;
25091;SDS011;13082;52.374;4.946;2022-11-28T06:30:46;21.83;;;12.23;;
25091;SDS011;13082;52.374;4.946;2022-11-28T06:33:12;23.87;;;12.50;;
25091;SDS011;13082;52.374;4.946;2022-11-28T06:35:37;21.87;;;12.27;;
25091;SDS011;13082;52.374;4.946;2022-11-28T06:38:03;20.07;;;12.13;;
25091;SDS011;13082;52.374;4.946;2022-11-28T06:40:29;24.17;;;13.67;;
25091;SDS011;13082;52.374;4.946;2022-11-28T06:42:54;21.10;;;12.90;;
25091;SDS011;13082;52.374;4.946;2022-11-28T06:45:20;25.80;;;12.40;;
25091;SDS011;13082;52.374;4.946;2022-11-28T06:47:45;25.73;;;12.50;;
25091;SDS011;13082;52.374;4.946;2022-11-28T06:50:12;24.27;;;13.90;;
25091;SDS011;13082;52.374;4.946;2022-11-28T06:52:38;28.40;;;13.63;;
25091;SDS011;13082;52.374;4.946;2022-11-28T06:55:04;25.40;;;14.53;;
25091;SDS011;13082;52.374;4.946;2022-11-28T06:57:29;32.23;;;15.10;;
25091;SDS011;13082;52.374;4.946;2022-11-28T06:59:56;27.30;;;14.93;;
25091;SDS011;13082;52.374;4.946;2022-11-28T07:02:22;31.97;;;15.47;;
25091;SDS011;13082;52.374;4.946;2022-11-28T07:04:49;37.80;;;16.50;;
25091;SDS011;13082;52.374;4.946;2022-11-28T07:07:15;34.13;;;15.97;;
25091;SDS011;13082;52.374;4.946;2022-11-28T07:09:41;34.87;;;16.53;;
25091;SDS011;13082;52.374;4.946;2022-11-28T07:12:07;36.93;;;17.83;;
25091;SDS011;13082;52.374;4.946;2022-11-28T07:14:33;37.73;;;16.13;;
25091;SDS011;13082;52.374;4.946;2022-11-28T07:16:58;42.87;;;19.17;;
25091;SDS011;13082;52.374;4.946;2022-11-28T07:19:24;42.73;;;17.23;;
25091;SDS011;13082;52.374;4.946;2022-11-28T07:21:50;42.13;;;17.10;;
25091;SDS011;13082;52.374;4.946;2022-11-28T07:24:16;45.97;;;19.10;;
25091;SDS011;13082;52.374;4.946;2022-11-28T07:26:43;48.97;;;20.50;;
25091;SDS011;13082;52.374;4.946;2022-11-28T07:29:13;39.50;;;18.83;;
25091;SDS011;13082;52.374;4.946;2022-11-28T07:31:41;45.80;;;17.77;;
25091;SDS011;13082;52.374;4.946;2022-11-28T07:34:08;47.87;;;18.27;;
25091;SDS011;13082;52.374;4.946;2022-11-28T07:36:34;45.33;;;18.03;;
25091;SDS011;13082;52.374;4.946;2022-11-28T07:39:00;46.43;;;18.90;;
25091;SDS011;13082;52.374;4.946;2022-11-28T07:41:27;46.57;;;18.13;;
25091;SDS011;13082;52.374;4.946;2022-11-28T07:43:54;48.97;;;19.93;;
25091;SDS011;13082;52.374;4.946;2022-11-28T07:46:21;48.80;;;19.57;;
25091;SDS011;13082;52.374;4.946;2022-11-28T07:48:47;52.10;;;19.47;;
25091;SDS011;13082;52.374;4.946;2022-11-28T07:51:14;45.50;;;18.03;;
25091;SDS011;13082;52.374;4.946;2022-11-28T07:53:43;41.07;;;17.93;;
25091;SDS011;13082;52.374;4.946;2022-11-28T07:56:11;47.80;;;18.93;;
25091;SDS011;13082;52.374;4.946;2022-11-28T07:58:39;52.27;;;19.50;;
25091;SDS011;13082;52.374;4.946;2022-11-28T08:01:16;52.27;;;20.63;;
25091;SDS011;13082;52.374;4.946;2022-11-28T08:03:42;52.53;;;19.30;;
25091;SDS011;13082;52.374;4.946;2022-11-28T08:06:08;50.47;;;18.87;;
25091;SDS011;13082;52.374;4.946;2022-11-28T08:08:34;52.53;;;21.03;;
25091;SDS011;13082;52.374;4.946;2022-11-28T08:11:01;55.10;;;20.43;;
25091;SDS011;13082;52.374;4.946;2022-11-28T08:13:29;62.77;;;21.53;;
25091;SDS011;13082;52.374;4.946;2022-11-28T08:15:54;69.73;;;21.37;;
25091;SDS011;13082;52.374;4.946;2022-11-28T08:18:20;56.37;;;21.63;;
25091;SDS011;13082;52.374;4.946;2022-11-28T08:20:46;58.73;;;21.70;;
25091;SDS011;13082;52.374;4.946;2022-11-28T08:23:11;59.73;;;20.77;;
25091;SDS011;13082;52.374;4.946;2022-11-28T08:25:37;62.37;;;20.67;;
25091;SDS011;13082;52.374;4.946;2022-11-28T08:28:03;67.83;;;23.17;;
25091;SDS011;13082;52.374;4.946;2022-11-28T08:30:29;61.60;;;20.93;;
25091;SDS011;13082;52.374;4.946;2022-11-28T08:32:54;66.63;;;21.30;;
25091;SDS011;13082;52.374;4.946;2022-11-28T08:35:20;67.27;;;21.30;;
25091;SDS011;13082;52.374;4.946;2022-11-28T08:37:46;68.70;;;22.77;;
25091;SDS011;13082;52.374;4.946;2022-11-28T08:40:12;74.27;;;22.77;;
25091;SDS011;13082;52.374;4.946;2022-11-28T08:42:38;68.07;;;22.87;;
25091;SDS011;13082;52.374;4.946;2022-11-28T08:45:04;70.40;;;23.07;;
25091;SDS011;13082;52.374;4.946;2022-11-28T08:47:31;74.23;;;23.47;;
25091;SDS011;13082;52.374;4.946;2022-11-28T08:49:57;83.80;;;23.03;;
25091;SDS011;13082;52.374;4.946;2022-11-28T08:52:23;85.87;;;25.40;;
25091;SDS011;13082;52.374;4.946;2022-11-28T08:54:49;76.70;;;23.60;;
25091;SDS011;13082;52.374;4.946;2022-11-28T08:57:15;74.17;;;22.93;;
25091;SDS011;13082;52.374;4.946;2022-11-28T08:59:40;80.57;;;23.97;;
25091;SDS011;13082;52.374;4.946;2022-11-28T09:02:08;83.60;;;25.07;;
25091;SDS011;13082;52.374;4.946;2022-11-28T09:04:35;68.47;;;24.17;;
25091;SDS011;13082;52.374;4.946;2022-11-28T09:07:01;92.10;;;26.43;;
25091;SDS011;13082;52.374;4.946;2022-11-28T09:09:27;67.80;;;21.23;;
25091;SDS011;13082;52.374;4.946;2022-11-28T09:11:53;87.57;;;24.97;;
25091;SDS011;13082;52.374;4.946;2022-11-28T09:14:18;85.10;;;24.03;;
25091;SDS011;13082;52.374;4.946;2022-11-28T09:16:44;72.70;;;23.07;;
25091;SDS011;13082;52.374;4.946;2022-11-28T09:19:10;93.60;;;25.33;;
25091;SDS011;13082;52.374;4.946;2022-11-28T09:21:35;81.00;;;24.27;;
25091;SDS011;13082;52.374;4.946;2022-11-28T09:24:01;77.67;;;23.83;;
25091;SDS011;13082;52.374;4.946;2022-11-28T09:26:27;75.43;;;23.37;;
25091;SDS011;13082;52.374;4.946;2022-11-28T09:28:54;91.93;;;24.57;;
25091;SDS011;13082;52.374;4.946;2022-11-28T09:31:20;82.03;;;25.00;;
25091;SDS011;13082;52.374;4.946;2022-11-28T09:33:45;99.70;;;24.90;;
25091;SDS011;13082;52.374;4.946;2022-11-28T09:36:14;83.13;;;24.33;;
25091;SDS011;13082;52.374;4.946;2022-11-28T09:38:42;79.50;;;24.27;;
25091;SDS011;13082;52.374;4.946;2022-11-28T09:47:22;92.40;;;26.97;;
25091;SDS011;13082;52.374;4.946;2022-11-28T09:49:57;97.13;;;25.07;;
25091;SDS011;13082;52.374;4.946;2022-11-28T09:52:28;88.37;;;24.10;;
25091;SDS011;13082;52.374;4.946;2022-11-28T09:58:00;85.47;;;23.97;;
25091;SDS011;13082;52.374;4.946;2022-11-28T10:00:36;90.97;;;27.93;;
25091;SDS011;13082;52.374;4.946;2022-11-28T10:03:12;96.40;;;25.30;;
25091;SDS011;13082;52.374;4.946;2022-11-28T10:11:36;89.43;;;24.57;;
25091;SDS011;13082;52.374;4.946;2022-11-28T10:14:23;97.87;;;26.90;;
25091;SDS011;13082;52.374;4.946;2022-11-28T10:19:50;97.03;;;24.43;;
25091;SDS011;13082;52.374;4.946;2022-11-28T10:22:27;95.80;;;27.43;;
25091;SDS011;13082;52.374;4.946;2022-11-28T10:25:08;112.67;;;28.67;;
25091;SDS011;13082;52.374;4.946;2022-11-28T10:27:45;104.37;;;25.67;;
25091;SDS011;13082;52.374;4.946;2022-11-28T10:30:17;102.23;;;27.93;;
25091;SDS011;13082;52.374;4.946;2022-11-28T10:32:48;105.30;;;26.93;;
25091;SDS011;13082;52.374;4.946;2022-11-28T10:38:10;111.73;;;28.30;;
25091;SDS011;13082;52.374;4.946;2022-11-28T10:54:15;123.77;;;27.20;;
25091;SDS011;13082;52.374;4.946;2022-11-28T10:56:49;135.50;;;29.50;;
25091;SDS011;13082;52.374;4.946;2022-11-28T11:02:02;134.37;;;29.63;;
25091;SDS011;13082;52.374;4.946;2022-11-28T11:04:47;129.70;;;30.37;;
25091;SDS011;13082;52.374;4.946;2022-11-28T11:07:29;112.37;;;30.53;;
25091;SDS011;13082;52.374;4.946;2022-11-28T11:10:14;146.10;;;30.37;;
25091;SDS011;13082;52.374;4.946;2022-11-28T11:12:43;136.53;;;30.13;;
25091;SDS011;13082;52.374;4.946;2022-11-28T11:15:13;133.60;;;30.60;;
25091;SDS011;13082;52.374;4.946;2022-11-28T11:17:43;143.67;;;29.90;;
25091;SDS011;13082;52.374;4.946;2022-11-28T11:20:32;121.33;;;30.73;;
25091;SDS011;13082;52.374;4.946;2022-11-28T11:23:11;139.50;;;33.77;;
25091;SDS011;13082;52.374;4.946;2022-11-28T11:25:44;133.13;;;33.03;;
25091;SDS011;13082;52.374;4.946;2022-11-28T11:28:32;142.17;;;31.57;;
25091;SDS011;13082;52.374;4.946;2022-11-28T11:31:20;145.33;;;31.70;;
25091;SDS011;13082;52.374;4.946;2022-11-28T11:33:47;133.37;;;30.30;;
25091;SDS011;13082;52.374;4.946;2022-11-28T11:36:25;137.37;;;31.10;;
25091;SDS011;13082;52.374;4.946;2022-11-28T11:41:44;141.67;;;32.83;;
25091;SDS011;13082;52.374;4.946;2022-11-28T11:46:49;127.13;;;33.77;;
25091;SDS011;13082;52.374;4.946;2022-11-28T11:54:51;142.57;;;32.77;;
25091;SDS011;13082;52.374;4.946;2022-11-28T11:57:19;151.10;;;33.93;;
25091;SDS011;13082;52.374;4.946;2022-11-28T11:59:53;142.67;;;32.93;;
25091;SDS011;13082;52.374;4.946;2022-11-28T12:05:09;127.80;;;31.73;;
25091;SDS011;13082;52.374;4.946;2022-11-28T12:10:17;117.83;;;29.03;;
25091;SDS011;13082;52.374;4.946;2022-11-28T12:12:46;107.73;;;29.43;;
25091;SDS011;13082;52.374;4.946;2022-11-28T12:15:16;116.00;;;29.23;;
25091;SDS011;13082;52.374;4.946;2022-11-28T12:18:11;114.23;;;29.20;;
25091;SDS011;13082;52.374;4.946;2022-11-28T12:21:05;105.20;;;27.47;;
25091;SDS011;13082;52.374;4.946;2022-11-28T12:24:19;85.17;;;24.23;;
25091;SDS011;13082;52.374;4.946;2022-11-28T12:27:09;102.70;;;27.20;;
25091;SDS011;13082;52.374;4.946;2022-11-28T12:29:58;93.83;;;26.10;;
25091;SDS011;13082;52.374;4.946;2022-11-28T12:32:56;79.43;;;24.93;;
25091;SDS011;13082;52.374;4.946;2022-11-28T12:38:07;91.20;;;26.40;;
25091;SDS011;13082;52.374;4.946;2022-11-28T12:44:39;77.97;;;25.17;;
25091;SDS011;13082;52.374;4.946;2022-11-28T12:46:45;86.87;;;26.37;;
25091;SDS011;13082;52.374;4.946;2022-11-28T12:52:14;91.77;;;29.10;;
25091;SDS011;13082;52.374;4.946;2022-11-28T13:00:22;81.80;;;25.30;;
25091;SDS011;13082;52.374;4.946;2022-11-28T13:13:38;75.93;;;26.73;;
25091;SDS011;13082;52.374;4.946;2022-11-28T13:16:16;71.97;;;25.87;;
25091;SDS011;13082;52.374;4.946;2022-11-28T13:18:44;75.10;;;24.07;;
25091;SDS011;13082;52.374;4.946;2022-11-28T13:23:57;85.37;;;26.10;;
25091;SDS011;13082;52.374;4.946;2022-11-28T13:26:31;75.83;;;24.17;;
25091;SDS011;13082;52.374;4.946;2022-11-28T13:29:28;64.37;;;23.13;;
25091;SDS011;13082;52.374;4.946;2022-11-28T13:32:04;69.63;;;24.07;;
25091;SDS011;13082;52.374;4.946;2022-11-28T13:34:34;79.77;;;26.07;;
25091;SDS011;13082;52.374;4.946;2022-11-28T13:39:40;63.27;;;23.20;;
25091;SDS011;13082;52.374;4.946;2022-11-28T13:49:49;73.73;;;23.33;;
25091;SDS011;13082;52.374;4.946;2022-11-28T13:57:36;66.83;;;24.20;;
25091;SDS011;13082;52.374;4.946;2022-11-28T14:00:06;66.83;;;23.03;;
25091;SDS011;13082;52.374;4.946;2022-11-28T14:02:54;63.90;;;21.90;;
25091;SDS011;13082;52.374;4.946;2022-11-28T14:07:52;51.33;;;21.37;;
25091;SDS011;13082;52.374;4.946;2022-11-28T14:13:26;57.53;;;20.43;;
25091;SDS011;13082;52.374;4.946;2022-11-28T14:16:36;52.70;;;21.67;;
25091;SDS011;13082;52.374;4.946;2022-11-28T14:19:17;63.00;;;22.77;;
25091;SDS011;13082;52.374;4.946;2022-11-28T14:27:34;56.47;;;21.43;;
25091;SDS011;13082;52.374;4.946;2022-11-28T14:30:03;59.10;;;22.77;;
25091;SDS011;13082;52.374;4.946;2022-11-28T14:34:58;58.90;;;22.20;;
25091;SDS011;13082;52.374;4.946;2022-11-28T14:39:57;43.83;;;19.87;;
25091;SDS011;13082;52.374;4.946;2022-11-28T14:44:54;49.07;;;20.73;;
25091;SDS011;13082;52.374;4.946;2022-11-28T14:52:44;44.97;;;19.47;;
25091;SDS011;13082;52.374;4.946;2022-11-28T14:55:21;61.03;;;22.87;;
25091;SDS011;13082;52.374;4.946;2022-11-28T14:57:57;49.83;;;19.93;;
25091;SDS011;13082;52.374;4.946;2022-11-28T15:00:31;52.60;;;20.07;;
25091;SDS011;13082;52.374;4.946;2022-11-28T15:06:18;44.47;;;18.90;;
25091;SDS011;13082;52.374;4.946;2022-11-28T15:16:39;34.23;;;17.73;;
25091;SDS011;13082;52.374;4.946;2022-11-28T15:19:15;47.80;;;19.20;;
25091;SDS011;13082;52.374;4.946;2022-11-28T15:21:43;48.77;;;20.80;;
25091;SDS011;13082;52.374;4.946;2022-11-28T15:24:21;40.33;;;18.73;;
25091;SDS011;13082;52.374;4.946;2022-11-28T15:26:53;43.13;;;19.30;;
25091;SDS011;13082;52.374;4.946;2022-11-28T15:29:32;39.90;;;17.87;;
25091;SDS011;13082;52.374;4.946;2022-11-28T15:31:58;41.47;;;17.07;;
25091;SDS011;13082;52.374;4.946;2022-11-28T15:37:01;38.50;;;18.07;;
25091;SDS011;13082;52.374;4.946;2022-11-28T15:39:33;37.53;;;17.13;;
25091;SDS011;13082;52.374;4.946;2022-11-28T15:42:04;44.40;;;17.80;;
25091;SDS011;13082;52.374;4.946;2022-11-28T15:44:33;40.20;;;18.33;;
25091;SDS011;13082;52.374;4.946;2022-11-28T15:47:03;43.53;;;19.43;;
25091;SDS011;13082;52.374;4.946;2022-11-28T15:49:39;48.23;;;19.30;;
25091;SDS011;13082;52.374;4.946;2022-11-28T15:52:13;45.13;;;18.10;;
25091;SDS011;13082;52.374;4.946;2022-11-28T15:54:43;45.43;;;18.73;;
25091;SDS011;13082;52.374;4.946;2022-11-28T15:57:25;45.60;;;18.40;;
25091;SDS011;13082;52.374;4.946;2022-11-28T15:59:52;45.63;;;19.53;;
25091;SDS011;13082;52.374;4.946;2022-11-28T16:04:54;51.03;;;17.90;;
25091;SDS011;13082;52.374;4.946;2022-11-28T16:07:32;46.67;;;19.37;;
25091;SDS011;13082;52.374;4.946;2022-11-28T16:10:04;50.43;;;19.47;;
25091;SDS011;13082;52.374;4.946;2022-11-28T16:12:32;53.03;;;19.17;;
25091;SDS011;13082;52.374;4.946;2022-11-28T16:14:58;42.40;;;18.80;;
25091;SDS011;13082;52.374;4.946;2022-11-28T16:17:30;43.07;;;17.80;;
25091;SDS011;13082;52.374;4.946;2022-11-28T16:19:58;44.93;;;18.40;;
25091;SDS011;13082;52.374;4.946;2022-11-28T16:22:29;51.83;;;20.40;;
25091;SDS011;13082;52.374;4.946;2022-11-28T16:25:09;53.13;;;20.47;;
25091;SDS011;13082;52.374;4.946;2022-11-28T16:27:38;63.40;;;22.07;;
25091;SDS011;13082;52.374;4.946;2022-11-28T16:33:00;54.77;;;21.53;;
25091;SDS011;13082;52.374;4.946;2022-11-28T16:35:28;57.23;;;21.17;;
25091;SDS011;13082;52.374;4.946;2022-11-28T16:38:21;59.70;;;22.10;;
25091;SDS011;13082;52.374;4.946;2022-11-28T16:40:48;62.13;;;22.73;;
25091;SDS011;13082;52.374;4.946;2022-11-28T16:46:00;70.93;;;26.53;;
25091;SDS011;13082;52.374;4.946;2022-11-28T16:48:28;64.93;;;25.10;;
25091;SDS011;13082;52.374;4.946;2022-11-28T16:56:22;65.60;;;25.93;;
25091;SDS011;13082;52.374;4.946;2022-11-28T16:58:52;79.13;;;24.47;;
25091;SDS011;13082;52.374;4.946;2022-11-28T17:01:45;65.30;;;24.73;;
25091;SDS011;13082;52.374;4.946;2022-11-28T17:04:23;71.70;;;26.60;;
25091;SDS011;13082;52.374;4.946;2022-11-28T17:06:50;72.43;;;25.63;;
25091;SDS011;13082;52.374;4.946;2022-11-28T17:09:17;70.20;;;25.23;;
25091;SDS011;13082;52.374;4.946;2022-11-28T17:11:45;72.07;;;24.87;;
25091;SDS011;13082;52.374;4.946;2022-11-28T17:14:13;72.17;;;24.90;;
25091;SDS011;13082;52.374;4.946;2022-11-28T17:16:39;66.07;;;24.17;;
25091;SDS011;13082;52.374;4.946;2022-11-28T17:19:05;60.50;;;22.50;;
25091;SDS011;13082;52.374;4.946;2022-11-28T17:23:58;65.03;;;23.67;;
25091;SDS011;13082;52.374;4.946;2022-11-28T17:26:25;65.37;;;24.43;;
25091;SDS011;13082;52.374;4.946;2022-11-28T17:28:50;73.97;;;27.33;;
25091;SDS011;13082;52.374;4.946;2022-11-28T17:31:16;66.60;;;27.27;;
25091;SDS011;13082;52.374;4.946;2022-11-28T17:33:42;61.30;;;24.97;;
25091;SDS011;13082;52.374;4.946;2022-11-28T17:36:09;65.33;;;27.60;;
25091;SDS011;13082;52.374;4.946;2022-11-28T17:38:35;62.63;;;25.23;;
25091;SDS011;13082;52.374;4.946;2022-11-28T17:41:02;61.30;;;25.87;;
25091;SDS011;13082;52.374;4.946;2022-11-28T17:43:28;52.90;;;21.87;;
25091;SDS011;13082;52.374;4.946;2022-11-28T17:45:53;83.50;;;44.87;;
25091;SDS011;13082;52.374;4.946;2022-11-28T17:48:20;60.87;;;28.30;;
25091;SDS011;13082;52.374;4.946;2022-11-28T17:50:46;69.40;;;27.80;;
25091;SDS011;13082;52.374;4.946;2022-11-28T17:53:14;67.17;;;25.70;;
25091;SDS011;13082;52.374;4.946;2022-11-28T17:55:42;64.13;;;27.17;;
25091;SDS011;13082;52.374;4.946;2022-11-28T17:58:22;64.70;;;27.43;;
25091;SDS011;13082;52.374;4.946;2022-11-28T18:00:51;62.40;;;26.50;;